Time,TemperatureF,DewpointF,PressureIn,WindDirection,WindDirectionDegrees,WindSpeedMPH,WindSpeedGustMPH,Humidity,HourlyPrecipIn,Conditions,Clouds,dailyrainin,SoftwareType,DateUTC
2018-01-22 00:01:00,50.5,43.5,30.17,WSW,257,6.2,6.5,76,0.00,,,0.00,CWS Microserver 2.4,2018-01-22 05:01:00,
2018-01-22 00:06:00,50.9,43.6,30.18,WSW,254,7.1,7.3,76,0.00,,,0.00,CWS Microserver 2.4,2018-01-22 05:06:00,
2018-01-22 00:11:00,50.9,44.0,30.17,West,259,6.4,7.3,77,0.00,,,0.00,CWS Microserver 2.4,2018-01-22 05:11:00,
2018-01-22 00:31:00,51.8,43.8,30.17,WSW,254,4.1,6.9,74,0.00,,,0.00,CWS Microserver 2.4,2018-01-22 05:31:00,
2018-01-22 00:36:00,51.8,43.5,30.17,West,260,5.4,6.9,73,0.00,,,0.00,CWS Microserver 2.4,2018-01-22 05:36:00,
2018-01-22 00:41:00,51.9,43.4,30.17,West,265,3.9,6.5,72,0.00,,,0.00,CWS Microserver 2.4,2018-01-22 05:41:00,
2018-01-22 00:46:00,51.8,43.1,30.17,West,261,5.3,6.5,72,0.00,,,0.00,CWS Microserver 2.4,2018-01-22 05:46:00,
2018-01-22 00:51:00,51.8,43.4,30.17,West,276,4.1,6.1,72,0.00,,,0.00,CWS Microserver 2.4,2018-01-22 05:51:00,
2018-01-22 00:56:00,51.9,42.8,30.17,West,262,5.7,6.2,71,0.00,,,0.00,CWS Microserver 2.4,2018-01-22 05:56:00,
2018-01-22 01:01:00,51.9,42.6,30.17,West,276,5.5,6.5,70,0.00,,,0.00,CWS Microserver 2.4,2018-01-22 06:01:00,
2018-01-22 01:11:00,52.3,42.1,30.17,West,272,3.6,6.4,68,0.00,,,0.00,CWS Microserver 2.4,2018-01-22 06:11:00,
2018-01-22 01:16:00,52.5,41.6,30.16,West,278,3.5,5.6,66,0.00,,,0.00,CWS Microserver 2.4,2018-01-22 06:16:00,
2018-01-22 01:21:00,52.5,41.3,30.16,West,273,2.6,5.0,65,0.00,,,0.00,CWS Microserver 2.4,2018-01-22 06:21:00,
2018-01-22 01:26:00,52.3,41.2,30.16,West,269,1.8,4.1,65,0.00,,,0.00,CWS Microserver 2.4,2018-01-22 06:26:00,
2018-01-22 01:41:00,51.0,41.0,30.16,East,82,1.0,2.1,68,0.00,,,0.00,CWS Microserver 2.4,2018-01-22 06:41:00,
2018-01-22 01:46:00,49.8,40.8,30.16,ENE,58,1.2,1.8,71,0.00,,,0.00,CWS Microserver 2.4,2018-01-22 06:46:00,
2018-01-22 01:51:00,49.6,41.2,30.16,NNW,335,1.2,2.0,72,0.00,,,0.00,CWS Microserver 2.4,2018-01-22 06:51:00,
2018-01-22 01:56:00,49.8,41.4,30.15,NNW,344,2.1,2.3,72,0.00,,,0.00,CWS Microserver 2.4,2018-01-22 06:56:00,
2018-01-22 02:06:00,50.0,41.6,30.15,North,352,0.5,2.2,72,0.00,,,0.00,CWS Microserver 2.4,2018-01-22 07:06:00,
2018-01-22 02:11:00,49.6,41.4,30.15,NE,47,1.7,1.9,73,0.00,,,0.00,CWS Microserver 2.4,2018-01-22 07:11:00,
2018-01-22 02:16:00,49.1,41.4,30.15,NNE,33,1.1,1.9,74,0.00,,,0.00,CWS Microserver 2.4,2018-01-22 07:16:00,
2018-01-22 02:21:00,48.9,41.7,30.15,North,354,0.9,1.7,76,0.00,,,0.00,CWS Microserver 2.4,2018-01-22 07:21:00,
2018-01-22 02:26:00,48.9,41.9,30.15,NW,309,1.3,1.8,76,0.00,,,0.00,CWS Microserver 2.4,2018-01-22 07:26:00,
2018-01-22 02:36:00,48.7,41.8,30.15,NW,322,0.2,1.4,77,0.00,,,0.00,CWS Microserver 2.4,2018-01-22 07:36:00,
2018-01-22 02:41:00,48.7,42.1,30.16,NW,306,1.8,2.0,77,0.00,,,0.00,CWS Microserver 2.4,2018-01-22 07:41:00,
2018-01-22 02:46:00,49.1,42.6,30.16,WNW,294,1.7,2.3,78,0.00,,,0.00,CWS Microserver 2.4,2018-01-22 07:46:00,
2018-01-22 02:51:00,49.4,42.7,30.16,NW,307,1.0,2.3,77,0.00,,,0.00,CWS Microserver 2.4,2018-01-22 07:51:00,
2018-01-22 02:56:00,49.4,42.9,30.16,WNW,292,1.7,2.3,78,0.00,,,0.00,CWS Microserver 2.4,2018-01-22 07:56:00,
2018-01-22 03:01:00,49.6,43.1,30.17,NW,324,1.9,2.9,78,0.00,,,0.00,CWS Microserver 2.4,2018-01-22 08:01:00,
2018-01-22 03:06:00,50.0,43.5,30.17,NNW,335,2.6,3.4,78,0.00,,,0.00,CWS Microserver 2.4,2018-01-22 08:06:00,
2018-01-22 03:11:00,50.3,44.0,30.16,NW,322,3.2,4.0,78,0.00,,,0.00,CWS Microserver 2.4,2018-01-22 08:11:00,
2018-01-22 03:21:00,51.8,44.5,30.16,NW,326,4.3,5.1,76,0.00,,,0.00,CWS Microserver 2.4,2018-01-22 08:21:00,
2018-01-22 03:26:00,51.4,43.9,30.15,North,351,4.2,5.1,75,0.00,,,0.00,CWS Microserver 2.4,2018-01-22 08:26:00,
2018-01-22 03:36:00,49.6,43.4,30.15,NNE,13,1.1,5.0,79,0.00,,,0.00,CWS Microserver 2.4,2018-01-22 08:36:00,
2018-01-22 03:51:00,48.3,43.2,30.14,NNE,33,0.6,2.7,82,0.00,,,0.00,CWS Microserver 2.4,2018-01-22 08:51:00,
2018-01-22 03:56:00,48.0,43.1,30.14,NNW,347,1.0,2.7,83,0.00,,,0.00,CWS Microserver 2.4,2018-01-22 08:56:00,
2018-01-22 04:01:00,48.0,43.4,30.15,North,355,0.5,1.2,84,0.00,,,0.00,CWS Microserver 2.4,2018-01-22 09:01:00,
2018-01-22 04:06:00,47.6,42.8,30.15,ENE,61,0.3,1.2,83,0.00,,,0.00,CWS Microserver 2.4,2018-01-22 09:06:00,
2018-01-22 04:16:00,47.3,43.1,30.14,East,91,0.8,0.9,85,0.00,,,0.00,CWS Microserver 2.4,2018-01-22 09:16:00,
2018-01-22 04:21:00,47.1,42.8,30.15,East,81,0.2,0.9,84,0.00,,,0.00,CWS Microserver 2.4,2018-01-22 09:21:00,
2018-01-22 04:26:00,46.5,42.1,30.15,West,280,0.3,0.9,84,0.00,,,0.00,CWS Microserver 2.4,2018-01-22 09:26:00,
2018-01-22 04:41:00,45.3,40.7,30.14,East,90,0.9,1.6,83,0.00,,,0.00,CWS Microserver 2.4,2018-01-22 09:41:00,
2018-01-22 04:46:00,44.7,40.4,30.15,ESE,111,0.8,1.6,84,0.00,,,0.00,CWS Microserver 2.4,2018-01-22 09:46:00,
2018-01-22 04:51:00,44.7,40.6,30.15,East,96,1.5,1.5,85,0.00,,,0.00,CWS Microserver 2.4,2018-01-22 09:51:00,
2018-01-22 04:56:00,44.9,41.1,30.15,ENE,78,2.3,2.4,86,0.00,,,0.00,CWS Microserver 2.4,2018-01-22 09:56:00,
2018-01-22 05:01:00,44.9,41.0,30.15,ENE,69,2.5,2.6,86,0.00,,,0.00,CWS Microserver 2.4,2018-01-22 10:01:00,
2018-01-22 05:06:00,46.0,43.1,30.15,ENE,59,2.8,2.8,89,0.00,,,0.00,CWS Microserver 2.4,2018-01-22 10:06:00,
2018-01-22 05:11:00,46.5,43.0,30.15,NE,56,3.9,3.9,87,0.00,,,0.00,CWS Microserver 2.4,2018-01-22 10:11:00,
2018-01-22 05:16:00,46.9,43.2,30.15,NE,51,3.5,3.9,86,0.00,,,0.00,CWS Microserver 2.4,2018-01-22 10:16:00,
2018-01-22 05:21:00,47.3,43.0,30.15,ENE,63,2.4,3.9,84,0.00,,,0.00,CWS Microserver 2.4,2018-01-22 10:21:00,
2018-01-22 05:26:00,45.6,40.7,30.15,ENE,59,3.2,4.3,82,0.00,,,0.00,CWS Microserver 2.4,2018-01-22 10:26:00,
2018-01-22 05:31:00,46.5,43.3,30.15,NE,38,3.6,4.3,88,0.00,,,0.00,CWS Microserver 2.4,2018-01-22 10:31:00,